map of KVES home
KVES - Airport
Location
City:  Versailles, Ohio, United States
Name:Darke County Airport
ICAO:KVES
FAA LID:VES

Details
Type:Airport (Airfield)
Use:Public/Civil
Latitude:4012'16"N (40.204417)
Longitude:8431'57"W (-84.532416)
Datum:WGS 1984
Elevation:1007 ft (307 m)
Variation:6.01W (WMM2015v2 magnetic declination)
-0.02 annual change
Runways:1
Longest:4802 × 75 ft (1464 × 23 m), paved

Time
Time Zone:UTC-5 (DST-4)
Local Time:

Weather
METAR:KVES 041350Z AUTO 17008KT 10SM CLR 06/06 A2990 RMK AO2

Related Locations
Nearby:
Farthest:YAUG: 11286 mi / 18163 km
Augusta [Augusta Airport], WA, AU

Find:

   beyond  
but within

Other Information
Maps:
NOTAMs:
Links:
Sources:

  
  • flag of United States
  • flag of Ohio
  

Sectional Chart

Flight Planning
at skyvector.com

Satellite Image

Google Maps Satellite view

 

Copyright © 2004-2019 Karl L. Swartz. All rights reserved.
The Great Circle Mapper name and logo are trademarks of the Great Circle Mapper.
All other trademarks mentioned herein belong to their respective owners.
Please see credits for attibutions and further copyright information.

  Follow gcmap on Facebook Follow gcmap on Twitter GCmap on LinkedIn

hCard Microformat

Geo Microformat